sensor_id;sensor_type;location;lat;lon;timestamp;P1;durP1;ratioP1;P2;durP2;ratioP2
2406;SDS011;37709;53.480;9.688;2023-04-09T00:01:41;52.10;;;36.53;;
2406;SDS011;37709;53.480;9.688;2023-04-09T00:04:09;43.10;;;33.67;;
2406;SDS011;37709;53.480;9.688;2023-04-09T00:06:36;43.00;;;32.07;;
2406;SDS011;37709;53.480;9.688;2023-04-09T00:09:04;40.30;;;31.90;;
2406;SDS011;37709;53.480;9.688;2023-04-09T00:11:32;40.80;;;30.00;;
2406;SDS011;37709;53.480;9.688;2023-04-09T00:13:59;39.87;;;30.60;;
2406;SDS011;37709;53.480;9.688;2023-04-09T00:16:26;38.50;;;28.33;;
2406;SDS011;37709;53.480;9.688;2023-04-09T00:18:53;41.50;;;28.00;;
2406;SDS011;37709;53.480;9.688;2023-04-09T00:21:21;36.10;;;26.43;;
2406;SDS011;37709;53.480;9.688;2023-04-09T00:23:49;33.17;;;25.17;;
2406;SDS011;37709;53.480;9.688;2023-04-09T00:26:17;37.03;;;27.63;;
2406;SDS011;37709;53.480;9.688;2023-04-09T00:28:45;38.70;;;27.37;;
2406;SDS011;37709;53.480;9.688;2023-04-09T00:31:12;29.17;;;21.60;;
2406;SDS011;37709;53.480;9.688;2023-04-09T00:33:39;36.30;;;23.00;;
2406;SDS011;37709;53.480;9.688;2023-04-09T00:36:07;30.50;;;20.80;;
2406;SDS011;37709;53.480;9.688;2023-04-09T00:38:34;33.80;;;24.50;;
2406;SDS011;37709;53.480;9.688;2023-04-09T00:41:01;32.40;;;23.93;;
2406;SDS011;37709;53.480;9.688;2023-04-09T00:43:29;33.40;;;23.00;;
2406;SDS011;37709;53.480;9.688;2023-04-09T00:45:57;31.27;;;21.67;;
2406;SDS011;37709;53.480;9.688;2023-04-09T00:48:25;27.53;;;21.97;;
2406;SDS011;37709;53.480;9.688;2023-04-09T00:50:53;31.63;;;23.13;;
2406;SDS011;37709;53.480;9.688;2023-04-09T00:53:20;34.90;;;24.90;;
2406;SDS011;37709;53.480;9.688;2023-04-09T00:55:48;32.03;;;23.80;;
2406;SDS011;37709;53.480;9.688;2023-04-09T00:58:15;32.13;;;23.10;;
2406;SDS011;37709;53.480;9.688;2023-04-09T01:00:42;28.73;;;21.80;;
2406;SDS011;37709;53.480;9.688;2023-04-09T01:03:10;29.77;;;21.80;;
2406;SDS011;37709;53.480;9.688;2023-04-09T01:05:59;30.40;;;21.53;;
2406;SDS011;37709;53.480;9.688;2023-04-09T01:08:40;28.30;;;21.13;;
2406;SDS011;37709;53.480;9.688;2023-04-09T01:11:31;32.53;;;21.60;;
2406;SDS011;37709;53.480;9.688;2023-04-09T01:17:04;26.67;;;21.90;;
2406;SDS011;37709;53.480;9.688;2023-04-09T01:28:16;31.47;;;20.30;;
2406;SDS011;37709;53.480;9.688;2023-04-09T01:30:52;29.03;;;19.10;;
2406;SDS011;37709;53.480;9.688;2023-04-09T01:33:25;28.40;;;20.93;;
2406;SDS011;37709;53.480;9.688;2023-04-09T01:35:53;29.10;;;21.10;;
2406;SDS011;37709;53.480;9.688;2023-04-09T01:38:25;25.60;;;19.67;;
2406;SDS011;37709;53.480;9.688;2023-04-09T01:40:54;29.20;;;20.27;;
2406;SDS011;37709;53.480;9.688;2023-04-09T01:43:23;30.77;;;21.60;;
2406;SDS011;37709;53.480;9.688;2023-04-09T01:45:52;29.30;;;21.20;;
2406;SDS011;37709;53.480;9.688;2023-04-09T01:48:21;31.60;;;23.80;;
2406;SDS011;37709;53.480;9.688;2023-04-09T01:50:49;34.70;;;21.97;;
2406;SDS011;37709;53.480;9.688;2023-04-09T01:53:20;31.97;;;22.60;;
2406;SDS011;37709;53.480;9.688;2023-04-09T01:55:48;30.73;;;21.60;;
2406;SDS011;37709;53.480;9.688;2023-04-09T01:58:15;31.23;;;22.13;;
2406;SDS011;37709;53.480;9.688;2023-04-09T02:00:44;32.13;;;23.33;;
2406;SDS011;37709;53.480;9.688;2023-04-09T02:03:23;29.90;;;22.20;;
2406;SDS011;37709;53.480;9.688;2023-04-09T02:08:37;31.50;;;22.90;;
2406;SDS011;37709;53.480;9.688;2023-04-09T02:11:05;30.10;;;21.37;;
2406;SDS011;37709;53.480;9.688;2023-04-09T02:13:36;31.00;;;22.40;;
2406;SDS011;37709;53.480;9.688;2023-04-09T02:16:07;36.57;;;22.13;;
2406;SDS011;37709;53.480;9.688;2023-04-09T02:18:37;35.27;;;22.93;;
2406;SDS011;37709;53.480;9.688;2023-04-09T02:21:04;34.40;;;22.73;;
2406;SDS011;37709;53.480;9.688;2023-04-09T02:23:32;33.37;;;24.27;;
2406;SDS011;37709;53.480;9.688;2023-04-09T02:26:00;34.40;;;25.50;;
2406;SDS011;37709;53.480;9.688;2023-04-09T02:28:28;35.47;;;24.80;;
2406;SDS011;37709;53.480;9.688;2023-04-09T02:30:55;40.57;;;24.37;;
2406;SDS011;37709;53.480;9.688;2023-04-09T02:33:22;37.50;;;25.03;;
2406;SDS011;37709;53.480;9.688;2023-04-09T02:35:49;38.30;;;26.20;;
2406;SDS011;37709;53.480;9.688;2023-04-09T02:38:18;33.30;;;23.67;;
2406;SDS011;37709;53.480;9.688;2023-04-09T02:40:46;41.07;;;26.50;;
2406;SDS011;37709;53.480;9.688;2023-04-09T02:43:14;38.07;;;24.90;;
2406;SDS011;37709;53.480;9.688;2023-04-09T02:45:41;38.57;;;24.67;;
2406;SDS011;37709;53.480;9.688;2023-04-09T02:48:09;34.40;;;25.10;;
2406;SDS011;37709;53.480;9.688;2023-04-09T02:50:36;39.10;;;27.17;;
2406;SDS011;37709;53.480;9.688;2023-04-09T02:53:04;38.40;;;26.70;;
2406;SDS011;37709;53.480;9.688;2023-04-09T02:55:31;36.50;;;25.47;;
2406;SDS011;37709;53.480;9.688;2023-04-09T02:57:59;40.97;;;26.83;;
2406;SDS011;37709;53.480;9.688;2023-04-09T03:00:26;39.57;;;28.10;;
2406;SDS011;37709;53.480;9.688;2023-04-09T03:02:54;37.63;;;26.60;;
2406;SDS011;37709;53.480;9.688;2023-04-09T03:05:22;36.30;;;27.07;;
2406;SDS011;37709;53.480;9.688;2023-04-09T03:07:49;37.67;;;25.60;;
2406;SDS011;37709;53.480;9.688;2023-04-09T03:10:17;34.17;;;23.70;;
2406;SDS011;37709;53.480;9.688;2023-04-09T03:12:44;39.60;;;26.87;;
2406;SDS011;37709;53.480;9.688;2023-04-09T03:15:13;38.37;;;25.90;;
2406;SDS011;37709;53.480;9.688;2023-04-09T03:17:40;33.50;;;24.63;;
2406;SDS011;37709;53.480;9.688;2023-04-09T03:20:08;34.80;;;24.57;;
2406;SDS011;37709;53.480;9.688;2023-04-09T03:22:37;36.00;;;24.73;;
2406;SDS011;37709;53.480;9.688;2023-04-09T03:25:28;39.60;;;24.50;;
2406;SDS011;37709;53.480;9.688;2023-04-09T03:27:56;36.03;;;24.83;;
2406;SDS011;37709;53.480;9.688;2023-04-09T03:30:45;29.77;;;23.10;;
2406;SDS011;37709;53.480;9.688;2023-04-09T03:33:14;32.80;;;23.13;;
2406;SDS011;37709;53.480;9.688;2023-04-09T03:35:55;33.10;;;24.40;;
2406;SDS011;37709;53.480;9.688;2023-04-09T03:38:39;33.73;;;24.60;;
2406;SDS011;37709;53.480;9.688;2023-04-09T03:41:14;35.10;;;25.30;;
2406;SDS011;37709;53.480;9.688;2023-04-09T03:43:42;32.77;;;23.50;;
2406;SDS011;37709;53.480;9.688;2023-04-09T03:46:12;36.37;;;24.10;;
2406;SDS011;37709;53.480;9.688;2023-04-09T03:48:42;32.30;;;23.53;;
2406;SDS011;37709;53.480;9.688;2023-04-09T03:51:12;32.80;;;21.37;;
2406;SDS011;37709;53.480;9.688;2023-04-09T03:53:44;36.03;;;24.00;;
2406;SDS011;37709;53.480;9.688;2023-04-09T03:56:12;35.67;;;24.60;;
2406;SDS011;37709;53.480;9.688;2023-04-09T03:58:40;34.10;;;23.43;;
2406;SDS011;37709;53.480;9.688;2023-04-09T04:01:09;29.83;;;21.73;;
2406;SDS011;37709;53.480;9.688;2023-04-09T04:03:42;34.37;;;24.00;;
2406;SDS011;37709;53.480;9.688;2023-04-09T04:06:24;30.43;;;23.13;;
2406;SDS011;37709;53.480;9.688;2023-04-09T04:09:01;32.00;;;23.13;;
2406;SDS011;37709;53.480;9.688;2023-04-09T04:11:41;27.83;;;20.67;;
2406;SDS011;37709;53.480;9.688;2023-04-09T04:14:09;31.87;;;23.77;;
2406;SDS011;37709;53.480;9.688;2023-04-09T04:16:39;35.80;;;24.13;;
2406;SDS011;37709;53.480;9.688;2023-04-09T04:19:07;32.30;;;23.07;;
2406;SDS011;37709;53.480;9.688;2023-04-09T04:21:41;32.53;;;23.90;;
2406;SDS011;37709;53.480;9.688;2023-04-09T04:24:09;32.40;;;21.90;;
2406;SDS011;37709;53.480;9.688;2023-04-09T04:26:36;32.57;;;23.60;;
2406;SDS011;37709;53.480;9.688;2023-04-09T04:29:05;32.80;;;23.83;;
2406;SDS011;37709;53.480;9.688;2023-04-09T04:32:08;33.13;;;23.30;;
2406;SDS011;37709;53.480;9.688;2023-04-09T04:34:37;31.97;;;22.00;;
2406;SDS011;37709;53.480;9.688;2023-04-09T04:37:14;34.37;;;24.00;;
2406;SDS011;37709;53.480;9.688;2023-04-09T04:39:41;30.50;;;22.53;;
2406;SDS011;37709;53.480;9.688;2023-04-09T04:42:13;31.10;;;22.00;;
2406;SDS011;37709;53.480;9.688;2023-04-09T04:44:41;25.50;;;19.40;;
2406;SDS011;37709;53.480;9.688;2023-04-09T04:47:27;31.70;;;21.70;;
2406;SDS011;37709;53.480;9.688;2023-04-09T04:49:54;26.00;;;19.90;;
2406;SDS011;37709;53.480;9.688;2023-04-09T04:52:22;28.37;;;18.90;;
2406;SDS011;37709;53.480;9.688;2023-04-09T04:54:51;25.30;;;17.90;;
2406;SDS011;37709;53.480;9.688;2023-04-09T04:57:22;29.07;;;19.33;;
2406;SDS011;37709;53.480;9.688;2023-04-09T04:59:49;30.43;;;19.20;;
2406;SDS011;37709;53.480;9.688;2023-04-09T05:02:17;30.50;;;20.00;;
2406;SDS011;37709;53.480;9.688;2023-04-09T05:05:08;28.00;;;20.93;;
2406;SDS011;37709;53.480;9.688;2023-04-09T05:07:43;31.80;;;22.20;;
2406;SDS011;37709;53.480;9.688;2023-04-09T05:10:11;26.90;;;19.07;;
2406;SDS011;37709;53.480;9.688;2023-04-09T05:12:41;27.87;;;19.77;;
2406;SDS011;37709;53.480;9.688;2023-04-09T05:15:10;27.93;;;19.37;;
2406;SDS011;37709;53.480;9.688;2023-04-09T05:17:37;26.57;;;19.80;;
2406;SDS011;37709;53.480;9.688;2023-04-09T05:20:08;23.57;;;16.90;;
2406;SDS011;37709;53.480;9.688;2023-04-09T05:22:49;28.60;;;17.80;;
2406;SDS011;37709;53.480;9.688;2023-04-09T05:25:17;22.53;;;16.03;;
2406;SDS011;37709;53.480;9.688;2023-04-09T05:27:44;23.97;;;16.20;;
2406;SDS011;37709;53.480;9.688;2023-04-09T05:30:12;22.10;;;16.27;;
2406;SDS011;37709;53.480;9.688;2023-04-09T05:32:41;21.23;;;15.93;;
2406;SDS011;37709;53.480;9.688;2023-04-09T05:35:09;22.43;;;16.13;;
2406;SDS011;37709;53.480;9.688;2023-04-09T05:37:40;21.83;;;15.10;;
2406;SDS011;37709;53.480;9.688;2023-04-09T05:40:07;21.00;;;16.03;;
2406;SDS011;37709;53.480;9.688;2023-04-09T05:42:35;21.20;;;15.80;;
2406;SDS011;37709;53.480;9.688;2023-04-09T05:45:10;20.63;;;15.77;;
2406;SDS011;37709;53.480;9.688;2023-04-09T05:47:45;25.13;;;15.63;;
2406;SDS011;37709;53.480;9.688;2023-04-09T05:50:17;20.70;;;15.17;;
2406;SDS011;37709;53.480;9.688;2023-04-09T05:52:48;19.97;;;14.73;;
2406;SDS011;37709;53.480;9.688;2023-04-09T05:55:15;20.17;;;14.47;;
2406;SDS011;37709;53.480;9.688;2023-04-09T05:57:47;22.77;;;15.30;;
2406;SDS011;37709;53.480;9.688;2023-04-09T06:00:15;22.27;;;13.63;;
2406;SDS011;37709;53.480;9.688;2023-04-09T06:02:44;21.00;;;14.43;;
2406;SDS011;37709;53.480;9.688;2023-04-09T06:05:12;17.60;;;14.40;;
2406;SDS011;37709;53.480;9.688;2023-04-09T06:07:39;17.47;;;14.20;;
2406;SDS011;37709;53.480;9.688;2023-04-09T06:10:07;21.77;;;14.87;;
2406;SDS011;37709;53.480;9.688;2023-04-09T06:12:34;22.67;;;15.97;;
2406;SDS011;37709;53.480;9.688;2023-04-09T06:15:03;17.40;;;14.10;;
2406;SDS011;37709;53.480;9.688;2023-04-09T06:17:31;18.93;;;14.50;;
2406;SDS011;37709;53.480;9.688;2023-04-09T06:19:59;19.40;;;13.03;;
2406;SDS011;37709;53.480;9.688;2023-04-09T06:22:26;23.13;;;13.93;;
2406;SDS011;37709;53.480;9.688;2023-04-09T06:24:54;19.10;;;13.90;;
2406;SDS011;37709;53.480;9.688;2023-04-09T06:27:21;18.27;;;14.43;;
2406;SDS011;37709;53.480;9.688;2023-04-09T06:29:49;23.03;;;16.40;;
2406;SDS011;37709;53.480;9.688;2023-04-09T06:32:17;24.20;;;16.60;;
2406;SDS011;37709;53.480;9.688;2023-04-09T06:34:45;21.20;;;15.30;;
2406;SDS011;37709;53.480;9.688;2023-04-09T06:37:12;19.70;;;14.77;;
2406;SDS011;37709;53.480;9.688;2023-04-09T06:39:39;18.20;;;14.50;;
2406;SDS011;37709;53.480;9.688;2023-04-09T06:42:23;17.80;;;13.83;;
2406;SDS011;37709;53.480;9.688;2023-04-09T06:45:09;20.67;;;15.17;;
2406;SDS011;37709;53.480;9.688;2023-04-09T06:47:37;18.87;;;14.90;;
2406;SDS011;37709;53.480;9.688;2023-04-09T06:50:04;19.03;;;13.90;;
2406;SDS011;37709;53.480;9.688;2023-04-09T06:52:33;21.87;;;16.70;;
2406;SDS011;37709;53.480;9.688;2023-04-09T06:55:00;22.30;;;17.80;;
2406;SDS011;37709;53.480;9.688;2023-04-09T06:57:27;22.87;;;17.53;;
2406;SDS011;37709;53.480;9.688;2023-04-09T06:59:55;24.13;;;17.83;;
2406;SDS011;37709;53.480;9.688;2023-04-09T07:02:22;25.53;;;19.83;;
2406;SDS011;37709;53.480;9.688;2023-04-09T07:04:50;24.90;;;18.37;;
2406;SDS011;37709;53.480;9.688;2023-04-09T07:07:18;22.70;;;18.03;;
2406;SDS011;37709;53.480;9.688;2023-04-09T07:09:47;21.40;;;18.00;;
2406;SDS011;37709;53.480;9.688;2023-04-09T07:12:24;27.67;;;18.70;;
2406;SDS011;37709;53.480;9.688;2023-04-09T07:14:58;27.73;;;21.23;;
2406;SDS011;37709;53.480;9.688;2023-04-09T07:17:27;26.37;;;19.77;;
2406;SDS011;37709;53.480;9.688;2023-04-09T07:19:54;26.23;;;19.50;;
2406;SDS011;37709;53.480;9.688;2023-04-09T07:22:23;22.60;;;17.10;;
2406;SDS011;37709;53.480;9.688;2023-04-09T07:24:53;21.33;;;15.83;;
2406;SDS011;37709;53.480;9.688;2023-04-09T07:29:49;19.17;;;15.17;;
2406;SDS011;37709;53.480;9.688;2023-04-09T07:32:17;17.93;;;14.40;;
2406;SDS011;37709;53.480;9.688;2023-04-09T07:34:45;18.70;;;13.70;;
2406;SDS011;37709;53.480;9.688;2023-04-09T07:37:12;18.27;;;14.43;;
2406;SDS011;37709;53.480;9.688;2023-04-09T07:39:39;16.40;;;13.50;;
2406;SDS011;37709;53.480;9.688;2023-04-09T07:42:08;20.73;;;14.70;;
2406;SDS011;37709;53.480;9.688;2023-04-09T07:44:35;14.80;;;13.20;;
2406;SDS011;37709;53.480;9.688;2023-04-09T07:47:03;15.80;;;13.73;;
2406;SDS011;37709;53.480;9.688;2023-04-09T07:49:32;14.83;;;13.20;;
2406;SDS011;37709;53.480;9.688;2023-04-09T07:52:01;16.23;;;13.93;;
2406;SDS011;37709;53.480;9.688;2023-04-09T07:54:29;17.30;;;13.53;;
2406;SDS011;37709;53.480;9.688;2023-04-09T07:56:57;17.83;;;14.70;;
2406;SDS011;37709;53.480;9.688;2023-04-09T07:59:25;17.57;;;15.00;;
2406;SDS011;37709;53.480;9.688;2023-04-09T08:01:53;19.57;;;14.53;;
2406;SDS011;37709;53.480;9.688;2023-04-09T08:04:21;20.20;;;16.47;;
2406;SDS011;37709;53.480;9.688;2023-04-09T08:06:48;18.40;;;16.30;;
2406;SDS011;37709;53.480;9.688;2023-04-09T08:09:17;17.00;;;14.07;;
2406;SDS011;37709;53.480;9.688;2023-04-09T08:11:45;16.33;;;14.03;;
2406;SDS011;37709;53.480;9.688;2023-04-09T08:14:14;19.80;;;16.20;;
2406;SDS011;37709;53.480;9.688;2023-04-09T08:16:42;15.93;;;13.10;;
2406;SDS011;37709;53.480;9.688;2023-04-09T08:19:12;16.73;;;13.80;;
2406;SDS011;37709;53.480;9.688;2023-04-09T08:21:42;18.77;;;15.23;;
2406;SDS011;37709;53.480;9.688;2023-04-09T08:24:09;17.20;;;14.37;;
2406;SDS011;37709;53.480;9.688;2023-04-09T08:26:38;19.20;;;15.57;;
2406;SDS011;37709;53.480;9.688;2023-04-09T08:29:09;18.97;;;16.10;;
2406;SDS011;37709;53.480;9.688;2023-04-09T08:31:38;22.47;;;16.47;;
2406;SDS011;37709;53.480;9.688;2023-04-09T08:34:05;18.07;;;16.17;;
2406;SDS011;37709;53.480;9.688;2023-04-09T08:36:33;19.17;;;16.43;;
2406;SDS011;37709;53.480;9.688;2023-04-09T08:39:01;19.63;;;16.13;;
2406;SDS011;37709;53.480;9.688;2023-04-09T08:41:30;17.33;;;14.90;;
2406;SDS011;37709;53.480;9.688;2023-04-09T08:43:57;19.70;;;16.17;;
2406;SDS011;37709;53.480;9.688;2023-04-09T08:46:26;19.17;;;16.27;;
2406;SDS011;37709;53.480;9.688;2023-04-09T08:48:54;19.93;;;15.63;;
2406;SDS011;37709;53.480;9.688;2023-04-09T08:51:22;19.57;;;16.67;;
2406;SDS011;37709;53.480;9.688;2023-04-09T08:53:55;24.70;;;18.70;;
2406;SDS011;37709;53.480;9.688;2023-04-09T08:56:30;23.00;;;20.53;;
2406;SDS011;37709;53.480;9.688;2023-04-09T08:58:57;24.20;;;18.10;;
2406;SDS011;37709;53.480;9.688;2023-04-09T09:01:29;21.67;;;17.77;;
2406;SDS011;37709;53.480;9.688;2023-04-09T09:04:04;22.10;;;18.90;;
2406;SDS011;37709;53.480;9.688;2023-04-09T09:06:36;23.93;;;18.63;;
2406;SDS011;37709;53.480;9.688;2023-04-09T09:09:13;21.70;;;18.87;;
2406;SDS011;37709;53.480;9.688;2023-04-09T09:11:43;22.63;;;18.17;;
2406;SDS011;37709;53.480;9.688;2023-04-09T09:14:12;21.87;;;16.73;;
2406;SDS011;37709;53.480;9.688;2023-04-09T09:16:42;22.67;;;18.43;;
2406;SDS011;37709;53.480;9.688;2023-04-09T09:19:30;20.67;;;17.63;;
2406;SDS011;37709;53.480;9.688;2023-04-09T09:22:02;21.37;;;17.07;;
2406;SDS011;37709;53.480;9.688;2023-04-09T09:24:33;18.57;;;16.13;;
2406;SDS011;37709;53.480;9.688;2023-04-09T09:27:34;19.47;;;16.83;;
2406;SDS011;37709;53.480;9.688;2023-04-09T09:30:03;17.50;;;15.57;;
2406;SDS011;37709;53.480;9.688;2023-04-09T09:32:32;17.17;;;15.30;;
2406;SDS011;37709;53.480;9.688;2023-04-09T09:35:00;16.23;;;14.47;;
2406;SDS011;37709;53.480;9.688;2023-04-09T09:37:29;18.47;;;15.60;;
2406;SDS011;37709;53.480;9.688;2023-04-09T09:39:57;17.77;;;16.03;;
2406;SDS011;37709;53.480;9.688;2023-04-09T09:42:25;17.00;;;15.20;;
2406;SDS011;37709;53.480;9.688;2023-04-09T09:44:53;16.00;;;14.37;;
2406;SDS011;37709;53.480;9.688;2023-04-09T09:47:21;16.53;;;14.93;;
2406;SDS011;37709;53.480;9.688;2023-04-09T09:49:51;18.00;;;15.27;;
2406;SDS011;37709;53.480;9.688;2023-04-09T09:52:21;16.53;;;14.73;;
2406;SDS011;37709;53.480;9.688;2023-04-09T09:54:51;18.83;;;17.03;;
2406;SDS011;37709;53.480;9.688;2023-04-09T09:57:19;18.10;;;16.20;;
2406;SDS011;37709;53.480;9.688;2023-04-09T09:59:50;22.90;;;19.10;;
2406;SDS011;37709;53.480;9.688;2023-04-09T10:02:22;21.20;;;19.00;;
2406;SDS011;37709;53.480;9.688;2023-04-09T10:04:51;21.60;;;19.40;;
2406;SDS011;37709;53.480;9.688;2023-04-09T10:07:19;19.53;;;17.50;;
2406;SDS011;37709;53.480;9.688;2023-04-09T10:09:49;19.30;;;17.40;;
2406;SDS011;37709;53.480;9.688;2023-04-09T10:12:17;19.90;;;17.90;;
2406;SDS011;37709;53.480;9.688;2023-04-09T10:14:45;20.23;;;17.67;;
2406;SDS011;37709;53.480;9.688;2023-04-09T10:17:13;18.67;;;16.30;;
2406;SDS011;37709;53.480;9.688;2023-04-09T10:19:45;17.83;;;16.03;;
2406;SDS011;37709;53.480;9.688;2023-04-09T10:22:15;18.13;;;16.23;;
2406;SDS011;37709;53.480;9.688;2023-04-09T10:24:44;17.13;;;15.43;;
2406;SDS011;37709;53.480;9.688;2023-04-09T10:27:15;18.13;;;16.27;;
2406;SDS011;37709;53.480;9.688;2023-04-09T10:29:44;18.93;;;16.47;;
2406;SDS011;37709;53.480;9.688;2023-04-09T10:32:14;18.90;;;16.60;;
2406;SDS011;37709;53.480;9.688;2023-04-09T10:34:48;18.93;;;16.93;;
2406;SDS011;37709;53.480;9.688;2023-04-09T10:37:20;16.90;;;15.23;;
2406;SDS011;37709;53.480;9.688;2023-04-09T10:39:49;19.13;;;17.07;;
2406;SDS011;37709;53.480;9.688;2023-04-09T10:42:18;21.07;;;18.87;;
2406;SDS011;37709;53.480;9.688;2023-04-09T10:45:03;20.30;;;18.20;;
2406;SDS011;37709;53.480;9.688;2023-04-09T10:47:35;19.63;;;17.47;;
2406;SDS011;37709;53.480;9.688;2023-04-09T10:50:23;18.80;;;16.80;;
2406;SDS011;37709;53.480;9.688;2023-04-09T10:52:53;15.80;;;14.30;;
2406;SDS011;37709;53.480;9.688;2023-04-09T10:55:33;15.83;;;14.40;;
2406;SDS011;37709;53.480;9.688;2023-04-09T10:58:02;17.63;;;16.00;;
2406;SDS011;37709;53.480;9.688;2023-04-09T11:00:31;18.77;;;16.87;;
2406;SDS011;37709;53.480;9.688;2023-04-09T11:03:05;18.20;;;16.50;;
2406;SDS011;37709;53.480;9.688;2023-04-09T11:05:36;18.77;;;16.97;;
2406;SDS011;37709;53.480;9.688;2023-04-09T11:08:07;21.40;;;17.07;;
2406;SDS011;37709;53.480;9.688;2023-04-09T11:10:35;17.10;;;15.40;;
2406;SDS011;37709;53.480;9.688;2023-04-09T11:13:06;17.03;;;15.43;;
2406;SDS011;37709;53.480;9.688;2023-04-09T11:15:34;16.90;;;15.10;;
2406;SDS011;37709;53.480;9.688;2023-04-09T11:18:03;20.07;;;18.10;;
2406;SDS011;37709;53.480;9.688;2023-04-09T11:20:33;18.47;;;16.67;;
2406;SDS011;37709;53.480;9.688;2023-04-09T11:23:00;18.70;;;16.93;;
2406;SDS011;37709;53.480;9.688;2023-04-09T11:25:29;18.00;;;16.40;;
2406;SDS011;37709;53.480;9.688;2023-04-09T11:27:58;44.90;;;39.83;;
2406;SDS011;37709;53.480;9.688;2023-04-09T11:30:26;28.60;;;25.80;;
2406;SDS011;37709;53.480;9.688;2023-04-09T11:32:54;20.93;;;19.00;;
2406;SDS011;37709;53.480;9.688;2023-04-09T11:35:22;16.00;;;14.60;;
2406;SDS011;37709;53.480;9.688;2023-04-09T11:37:49;18.53;;;16.63;;
2406;SDS011;37709;53.480;9.688;2023-04-09T11:42:47;18.03;;;16.30;;
2406;SDS011;37709;53.480;9.688;2023-04-09T11:45:15;18.70;;;16.90;;
2406;SDS011;37709;53.480;9.688;2023-04-09T11:47:44;16.63;;;15.03;;
2406;SDS011;37709;53.480;9.688;2023-04-09T11:50:13;16.47;;;14.97;;
2406;SDS011;37709;53.480;9.688;2023-04-09T11:52:43;16.37;;;14.83;;
2406;SDS011;37709;53.480;9.688;2023-04-09T11:55:11;17.80;;;16.13;;
2406;SDS011;37709;53.480;9.688;2023-04-09T11:57:53;17.87;;;16.07;;
2406;SDS011;37709;53.480;9.688;2023-04-09T12:00:26;18.03;;;16.40;;
2406;SDS011;37709;53.480;9.688;2023-04-09T12:03:01;17.13;;;15.47;;
2406;SDS011;37709;53.480;9.688;2023-04-09T12:05:31;31.80;;;28.80;;
2406;SDS011;37709;53.480;9.688;2023-04-09T12:08:01;21.40;;;19.50;;
2406;SDS011;37709;53.480;9.688;2023-04-09T12:10:32;20.03;;;18.03;;
2406;SDS011;37709;53.480;9.688;2023-04-09T12:13:01;18.47;;;16.77;;
2406;SDS011;37709;53.480;9.688;2023-04-09T12:15:35;21.37;;;19.23;;
2406;SDS011;37709;53.480;9.688;2023-04-09T12:18:06;20.47;;;18.53;;
2406;SDS011;37709;53.480;9.688;2023-04-09T12:20:42;27.87;;;25.13;;
2406;SDS011;37709;53.480;9.688;2023-04-09T12:23:10;24.47;;;22.07;;
2406;SDS011;37709;53.480;9.688;2023-04-09T12:25:39;40.00;;;36.07;;
2406;SDS011;37709;53.480;9.688;2023-04-09T12:28:08;19.70;;;17.60;;
2406;SDS011;37709;53.480;9.688;2023-04-09T12:30:35;26.13;;;23.60;;
2406;SDS011;37709;53.480;9.688;2023-04-09T12:33:03;24.93;;;22.43;;
2406;SDS011;37709;53.480;9.688;2023-04-09T12:35:31;24.93;;;22.43;;
2406;SDS011;37709;53.480;9.688;2023-04-09T12:38:00;18.67;;;16.93;;
2406;SDS011;37709;53.480;9.688;2023-04-09T12:40:28;18.70;;;17.10;;
2406;SDS011;37709;53.480;9.688;2023-04-09T12:42:56;18.87;;;17.07;;
2406;SDS011;37709;53.480;9.688;2023-04-09T12:45:23;19.20;;;17.47;;
2406;SDS011;37709;53.480;9.688;2023-04-09T12:47:51;18.10;;;16.50;;
2406;SDS011;37709;53.480;9.688;2023-04-09T12:50:19;18.37;;;16.67;;
2406;SDS011;37709;53.480;9.688;2023-04-09T12:52:46;18.40;;;16.70;;
2406;SDS011;37709;53.480;9.688;2023-04-09T12:55:14;18.27;;;16.43;;
2406;SDS011;37709;53.480;9.688;2023-04-09T12:57:42;23.40;;;21.07;;
2406;SDS011;37709;53.480;9.688;2023-04-09T13:00:11;20.93;;;18.90;;
2406;SDS011;37709;53.480;9.688;2023-04-09T13:02:39;25.63;;;23.43;;
2406;SDS011;37709;53.480;9.688;2023-04-09T13:05:07;19.20;;;17.37;;
2406;SDS011;37709;53.480;9.688;2023-04-09T13:07:35;24.47;;;22.17;;
2406;SDS011;37709;53.480;9.688;2023-04-09T13:10:03;27.57;;;24.97;;
2406;SDS011;37709;53.480;9.688;2023-04-09T13:12:31;20.90;;;19.00;;
2406;SDS011;37709;53.480;9.688;2023-04-09T13:14:59;19.90;;;18.10;;
2406;SDS011;37709;53.480;9.688;2023-04-09T13:17:26;17.97;;;16.30;;
2406;SDS011;37709;53.480;9.688;2023-04-09T13:19:53;17.80;;;16.20;;
2406;SDS011;37709;53.480;9.688;2023-04-09T13:22:21;19.13;;;17.33;;
2406;SDS011;37709;53.480;9.688;2023-04-09T13:24:48;19.07;;;17.37;;
2406;SDS011;37709;53.480;9.688;2023-04-09T13:27:16;17.00;;;15.57;;
2406;SDS011;37709;53.480;9.688;2023-04-09T13:29:43;17.00;;;15.50;;
2406;SDS011;37709;53.480;9.688;2023-04-09T13:32:10;18.37;;;16.77;;
2406;SDS011;37709;53.480;9.688;2023-04-09T13:34:37;17.93;;;16.20;;
2406;SDS011;37709;53.480;9.688;2023-04-09T13:37:06;17.90;;;16.30;;
2406;SDS011;37709;53.480;9.688;2023-04-09T13:39:33;16.33;;;14.83;;
2406;SDS011;37709;53.480;9.688;2023-04-09T13:42:05;17.30;;;15.80;;
2406;SDS011;37709;53.480;9.688;2023-04-09T13:44:42;17.70;;;16.10;;
2406;SDS011;37709;53.480;9.688;2023-04-09T13:47:11;16.73;;;15.30;;
2406;SDS011;37709;53.480;9.688;2023-04-09T13:49:40;15.30;;;14.00;;
2406;SDS011;37709;53.480;9.688;2023-04-09T13:52:08;16.80;;;15.20;;
2406;SDS011;37709;53.480;9.688;2023-04-09T13:54:36;20.63;;;18.73;;
2406;SDS011;37709;53.480;9.688;2023-04-09T13:57:03;17.70;;;16.10;;
2406;SDS011;37709;53.480;9.688;2023-04-09T13:59:31;18.77;;;17.07;;
2406;SDS011;37709;53.480;9.688;2023-04-09T14:01:59;20.40;;;18.50;;
2406;SDS011;37709;53.480;9.688;2023-04-09T14:04:26;17.20;;;15.50;;
2406;SDS011;37709;53.480;9.688;2023-04-09T14:06:53;17.50;;;15.97;;
2406;SDS011;37709;53.480;9.688;2023-04-09T14:09:23;16.37;;;14.80;;
2406;SDS011;37709;53.480;9.688;2023-04-09T14:11:50;15.67;;;14.27;;
2406;SDS011;37709;53.480;9.688;2023-04-09T14:14:20;17.23;;;15.53;;
2406;SDS011;37709;53.480;9.688;2023-04-09T14:16:47;14.50;;;13.20;;
2406;SDS011;37709;53.480;9.688;2023-04-09T14:19:16;14.73;;;13.43;;
2406;SDS011;37709;53.480;9.688;2023-04-09T14:21:43;15.80;;;14.20;;
2406;SDS011;37709;53.480;9.688;2023-04-09T14:24:10;16.03;;;14.63;;
2406;SDS011;37709;53.480;9.688;2023-04-09T14:26:37;13.60;;;12.30;;
2406;SDS011;37709;53.480;9.688;2023-04-09T14:29:04;16.17;;;14.47;;
2406;SDS011;37709;53.480;9.688;2023-04-09T14:31:32;13.90;;;12.50;;
2406;SDS011;37709;53.480;9.688;2023-04-09T14:33:59;13.90;;;12.50;;
2406;SDS011;37709;53.480;9.688;2023-04-09T14:36:26;13.60;;;12.40;;
2406;SDS011;37709;53.480;9.688;2023-04-09T14:38:54;13.47;;;12.17;;
2406;SDS011;37709;53.480;9.688;2023-04-09T14:41:24;13.77;;;12.57;;
2406;SDS011;37709;53.480;9.688;2023-04-09T14:43:52;14.40;;;13.00;;
2406;SDS011;37709;53.480;9.688;2023-04-09T14:46:19;13.63;;;12.33;;
2406;SDS011;37709;53.480;9.688;2023-04-09T14:48:48;14.40;;;13.10;;
2406;SDS011;37709;53.480;9.688;2023-04-09T14:51:15;15.50;;;14.00;;
2406;SDS011;37709;53.480;9.688;2023-04-09T14:53:43;14.87;;;13.47;;
2406;SDS011;37709;53.480;9.688;2023-04-09T14:56:10;15.83;;;14.40;;
2406;SDS011;37709;53.480;9.688;2023-04-09T14:58:38;15.70;;;14.10;;
2406;SDS011;37709;53.480;9.688;2023-04-09T15:01:05;14.97;;;13.57;;
2406;SDS011;37709;53.480;9.688;2023-04-09T15:03:32;16.37;;;14.77;;
2406;SDS011;37709;53.480;9.688;2023-04-09T15:06:00;16.03;;;14.53;;
2406;SDS011;37709;53.480;9.688;2023-04-09T15:08:27;15.10;;;13.60;;